createdAt,value
2019-02-05T00:02:16.586Z,8.90
2019-02-05T00:04:44.296Z,9.40
2019-02-05T00:07:11.912Z,8.20
2019-02-05T00:09:39.554Z,8.90
2019-02-05T00:12:07.451Z,9.60
2019-02-05T00:14:35.390Z,8.33
2019-02-05T00:17:03.103Z,9.67
2019-02-05T00:19:36.239Z,9.17
2019-02-05T00:22:04.726Z,9.30
2019-02-05T00:24:32.333Z,8.83
2019-02-05T00:27:00.549Z,8.80
2019-02-05T00:29:28.478Z,8.50
2019-02-05T00:31:56.437Z,9.17
2019-02-05T00:34:24.133Z,10.00
2019-02-05T00:36:52.075Z,9.37
2019-02-05T00:39:19.817Z,8.97
2019-02-05T00:41:47.496Z,9.83
2019-02-05T00:44:22.885Z,10.40
2019-02-05T00:46:50.632Z,10.10
2019-02-05T00:49:37.893Z,10.30
2019-02-05T00:52:05.484Z,10.80
2019-02-05T00:54:33.510Z,9.53
2019-02-05T00:57:01.320Z,11.00
2019-02-05T00:59:29.382Z,10.50
2019-02-05T01:01:57.703Z,9.90
2019-02-05T01:04:28.509Z,10.00
2019-02-05T01:06:58.660Z,9.50
2019-02-05T01:09:28.651Z,10.30
2019-02-05T01:11:56.380Z,10.10
2019-02-05T01:14:24.361Z,11.63
2019-02-05T01:16:51.960Z,10.63
2019-02-05T01:19:19.659Z,11.00
2019-02-05T01:21:47.307Z,10.63
2019-02-05T01:24:15.481Z,11.20
2019-02-05T01:26:43.584Z,9.77
2019-02-05T01:29:11.860Z,10.90
2019-02-05T01:31:40.757Z,9.97
2019-02-05T01:34:08.453Z,9.50
2019-02-05T01:36:36.006Z,10.60
2019-02-05T01:39:05.734Z,11.00
2019-02-05T01:41:35.682Z,11.03
2019-02-05T01:44:03.638Z,11.17
2019-02-05T01:46:38.586Z,11.10
2019-02-05T01:52:55.033Z,11.00
2019-02-05T01:55:28.106Z,11.07
2019-02-05T01:57:58.466Z,14.15
2019-02-05T02:00:31.017Z,11.83
2019-02-05T02:03:02.796Z,11.20
2019-02-05T02:05:31.869Z,11.97
2019-02-05T02:07:59.805Z,10.23
2019-02-05T02:10:29.438Z,10.73
2019-02-05T02:12:57.531Z,10.40
2019-02-05T02:15:44.093Z,12.00
2019-02-05T02:18:12.016Z,10.57
2019-02-05T02:21:00.343Z,12.17
2019-02-05T02:23:28.771Z,11.80
2019-02-05T02:26:04.405Z,12.53
2019-02-05T02:28:32.271Z,11.70
2019-02-05T02:31:03.309Z,12.20
2019-02-05T02:33:31.276Z,11.73
2019-02-05T02:36:11.478Z,11.60
2019-02-05T02:38:39.200Z,11.43
2019-02-05T02:41:07.032Z,12.37
2019-02-05T02:43:35.786Z,12.67
2019-02-05T02:46:05.067Z,14.73
2019-02-05T02:48:39.150Z,12.23
2019-02-05T02:51:06.914Z,13.63
2019-02-05T02:53:34.960Z,13.10
2019-02-05T02:56:02.498Z,13.50
2019-02-05T02:58:30.897Z,13.53
2019-02-05T03:00:58.525Z,13.20
2019-02-05T03:03:26.619Z,13.77
2019-02-05T03:05:54.245Z,14.37
2019-02-05T03:08:21.872Z,14.53
2019-02-05T03:10:50.839Z,14.43
2019-02-05T03:13:18.740Z,14.33
2019-02-05T03:15:51.340Z,14.80
2019-02-05T03:18:19.250Z,16.23
2019-02-05T03:20:47.489Z,15.63
2019-02-05T03:23:16.765Z,15.87
2019-02-05T03:25:45.816Z,15.67
2019-02-05T03:28:13.438Z,16.53
2019-02-05T03:30:42.054Z,15.17
2019-02-05T03:33:10.150Z,16.80
2019-02-05T03:35:38.688Z,16.07
2019-02-05T03:38:06.196Z,15.70
2019-02-05T03:41:08.933Z,16.93
2019-02-05T03:43:37.971Z,14.93
2019-02-05T03:46:08.517Z,15.83
2019-02-05T03:48:36.529Z,16.90
2019-02-05T03:51:55.417Z,17.40
2019-02-05T03:55:16.854Z,17.40
2019-02-05T03:58:12.148Z,17.13
2019-02-05T04:05:08.319Z,17.40
2019-02-05T04:08:02.111Z,19.20
2019-02-05T04:10:57.640Z,18.43
2019-02-05T04:14:04.310Z,19.17
2019-02-05T04:17:16.981Z,18.37
2019-02-05T04:20:29.601Z,18.43
2019-02-05T04:23:48.594Z,20.00
2019-02-05T04:27:06.967Z,18.90
2019-02-05T04:30:07.521Z,20.73
2019-02-05T04:33:00.964Z,20.90
2019-02-05T04:35:55.228Z,20.60
2019-02-05T04:38:48.119Z,25.40
2019-02-05T04:41:46.813Z,21.60
2019-02-05T04:44:58.387Z,20.87
2019-02-05T04:47:51.017Z,19.17
2019-02-05T04:50:33.533Z,20.17
2019-02-05T04:53:39.150Z,20.30
2019-02-05T04:56:33.513Z,21.23
2019-02-05T04:59:32.751Z,22.57
2019-02-05T05:02:43.831Z,20.97
2019-02-05T05:05:59.696Z,22.53
2019-02-05T05:08:53.317Z,21.97
2019-02-05T05:11:21.184Z,22.43
2019-02-05T05:13:48.860Z,22.63
2019-02-05T05:16:16.499Z,23.90
2019-02-05T05:18:44.086Z,21.27
2019-02-05T05:21:12.248Z,21.20
2019-02-05T05:23:40.108Z,22.73
2019-02-05T05:26:08.106Z,21.90
2019-02-05T05:28:37.839Z,21.10
2019-02-05T05:31:05.592Z,22.77
2019-02-05T05:33:33.249Z,21.60
2019-02-05T05:36:00.873Z,23.30
2019-02-05T05:38:28.714Z,21.33
2019-02-05T05:40:56.310Z,22.10
2019-02-05T05:43:24.126Z,21.73
2019-02-05T05:45:52.503Z,23.20
2019-02-05T05:48:21.023Z,25.47
2019-02-05T05:50:48.656Z,22.23
2019-02-05T05:53:16.291Z,24.40
2019-02-05T05:55:44.254Z,23.87
2019-02-05T05:58:33.393Z,24.13
2019-02-05T06:01:12.628Z,24.57
2019-02-05T06:03:43.323Z,26.17
2019-02-05T06:06:11.057Z,25.67
2019-02-05T06:08:38.814Z,25.53
2019-02-05T06:11:07.422Z,30.23
2019-02-05T06:13:36.298Z,27.50
2019-02-05T06:16:04.032Z,28.57
2019-02-05T06:18:31.702Z,29.70
2019-02-05T06:21:00.573Z,29.50
2019-02-05T06:23:28.264Z,28.50
2019-02-05T06:25:55.853Z,27.23
2019-02-05T06:28:34.004Z,25.97
2019-02-05T06:30:53.400Z,27.30
2019-02-05T06:33:23.506Z,26.53
2019-02-05T06:35:50.538Z,25.70
2019-02-05T06:38:18.190Z,26.47
2019-02-05T06:40:45.999Z,26.30
2019-02-05T06:43:13.588Z,25.00
2019-02-05T06:45:41.697Z,23.50
2019-02-05T06:48:09.367Z,22.43
2019-02-05T06:50:37.179Z,22.83
2019-02-05T06:53:04.900Z,21.83
2019-02-05T06:55:33.420Z,19.40
2019-02-05T06:58:01.043Z,18.03
2019-02-05T07:00:28.835Z,17.53
2019-02-05T07:02:56.348Z,21.87
2019-02-05T07:05:36.477Z,17.83
2019-02-05T07:08:04.150Z,14.93
2019-02-05T07:10:33.095Z,15.10
2019-02-05T07:13:00.667Z,14.90
2019-02-05T07:15:31.323Z,16.23
2019-02-05T07:17:59.202Z,16.37
2019-02-05T07:20:26.872Z,16.00
2019-02-05T07:22:55.708Z,15.53
2019-02-05T07:25:23.659Z,16.40
2019-02-05T07:27:51.246Z,17.13
2019-02-05T07:30:20.718Z,16.27
2019-02-05T07:32:48.432Z,16.47
2019-02-05T07:35:16.243Z,16.20
2019-02-05T07:37:43.951Z,16.43
2019-02-05T07:40:13.095Z,17.40
2019-02-05T07:42:41.507Z,17.20
2019-02-05T07:45:12.081Z,17.07
2019-02-05T07:47:39.721Z,17.90
2019-02-05T07:50:10.658Z,16.23
2019-02-05T07:52:38.361Z,15.77
2019-02-05T07:55:07.102Z,14.90
2019-02-05T07:57:34.768Z,16.90
2019-02-05T08:00:03.485Z,17.83
2019-02-05T08:02:32.290Z,16.97
2019-02-05T08:05:00.914Z,17.40
2019-02-05T08:07:28.955Z,16.00
2019-02-05T08:09:56.614Z,16.23
2019-02-05T08:12:24.177Z,18.37
2019-02-05T08:14:52.631Z,15.90
2019-02-05T08:17:20.308Z,17.53
2019-02-05T08:19:47.923Z,16.77
2019-02-05T08:22:15.945Z,16.97
2019-02-05T08:24:43.703Z,16.10
2019-02-05T08:27:11.426Z,18.50
2019-02-05T08:29:39.138Z,16.90
2019-02-05T08:32:06.739Z,16.10
2019-02-05T08:34:34.613Z,18.10
2019-02-05T08:37:02.330Z,17.90
2019-02-05T08:39:30.278Z,18.10
2019-02-05T08:41:57.923Z,16.77
2019-02-05T08:44:25.516Z,17.30
2019-02-05T08:46:53.732Z,16.77
2019-02-05T08:49:21.288Z,17.37
2019-02-05T08:51:48.914Z,16.60
2019-02-05T08:54:16.703Z,17.93
2019-02-05T08:56:44.522Z,16.33
2019-02-05T08:59:12.251Z,18.20
2019-02-05T09:01:40.049Z,17.27
2019-02-05T09:04:07.859Z,17.10
2019-02-05T09:06:35.548Z,17.87
2019-02-05T09:09:06.530Z,16.60
2019-02-05T09:11:36.081Z,17.17
2019-02-05T09:14:10.617Z,18.40
2019-02-05T09:16:34.439Z,16.83
2019-02-05T09:19:02.358Z,18.40
2019-02-05T09:21:30.077Z,18.50
2019-02-05T09:23:57.715Z,18.43
2019-02-05T09:26:25.361Z,19.23
2019-02-05T09:28:54.393Z,20.70
2019-02-05T09:31:22.014Z,19.97
2019-02-05T09:33:49.653Z,19.47
2019-02-05T09:36:17.711Z,20.10
2019-02-05T09:38:45.312Z,22.03
2019-02-05T09:41:13.114Z,21.57
2019-02-05T09:43:40.694Z,20.30
2019-02-05T09:46:08.304Z,20.13
2019-02-05T09:48:35.938Z,20.50
2019-02-05T09:51:03.834Z,19.30
2019-02-05T09:53:31.459Z,21.10
2019-02-05T09:55:59.596Z,19.33
2019-02-05T09:58:27.324Z,20.80
2019-02-05T10:00:55.035Z,20.20
2019-02-05T10:03:23.794Z,20.90
2019-02-05T10:05:51.436Z,20.70
2019-02-05T10:08:19.017Z,22.67
2019-02-05T10:10:46.636Z,19.77
2019-02-05T10:13:14.343Z,22.20
2019-02-05T10:15:42.292Z,22.37
2019-02-05T10:18:11.267Z,21.57
2019-02-05T10:20:39.150Z,21.93
2019-02-05T10:23:07.695Z,24.10
2019-02-05T10:25:36.057Z,23.53
2019-02-05T10:28:04.002Z,22.50
2019-02-05T10:30:34.142Z,21.60
2019-02-05T10:33:02.387Z,21.70
2019-02-05T10:35:29.975Z,23.37
2019-02-05T10:37:57.941Z,23.40
2019-02-05T10:40:26.085Z,22.70
2019-02-05T10:42:56.625Z,22.13
2019-02-05T10:45:24.762Z,22.13
2019-02-05T10:47:52.405Z,22.83
2019-02-05T10:50:21.461Z,20.73
2019-02-05T10:52:50.173Z,21.23
2019-02-05T10:55:17.976Z,22.27
2019-02-05T10:57:46.635Z,22.17
2019-02-05T11:00:17.506Z,20.30
2019-02-05T11:02:45.567Z,19.57
2019-02-05T11:05:17.328Z,19.00
2019-02-05T11:07:45.226Z,20.00
2019-02-05T11:10:13.525Z,19.70
2019-02-05T11:12:41.272Z,19.93
2019-02-05T11:15:11.263Z,19.73
2019-02-05T11:17:38.986Z,18.67
2019-02-05T11:20:10.741Z,18.50
2019-02-05T11:22:38.681Z,17.73
2019-02-05T11:25:07.379Z,22.90
2019-02-05T11:27:36.099Z,18.23
2019-02-05T11:30:07.031Z,25.35
2019-02-05T11:32:34.635Z,21.73
2019-02-05T11:35:02.260Z,22.43
2019-02-05T11:37:30.074Z,21.90
2019-02-05T11:39:57.751Z,23.47
2019-02-05T11:42:25.829Z,21.70
2019-02-05T11:44:55.202Z,22.00
2019-02-05T11:47:22.838Z,24.80
2019-02-05T11:49:50.614Z,22.77
2019-02-05T11:52:18.293Z,23.33
2019-02-05T11:54:45.952Z,23.30
2019-02-05T11:57:13.774Z,23.67
2019-02-05T11:59:41.440Z,21.80
2019-02-05T12:02:09.303Z,25.27
2019-02-05T12:04:37.071Z,22.17
2019-02-05T12:07:04.779Z,21.13
2019-02-05T12:09:32.399Z,20.83
2019-02-05T12:12:01.047Z,21.63
2019-02-05T12:14:28.638Z,20.03
2019-02-05T12:16:56.330Z,19.57
2019-02-05T12:19:23.983Z,19.30
2019-02-05T12:21:54.066Z,21.13
2019-02-05T12:24:21.983Z,16.37
2019-02-05T12:26:49.998Z,17.90
2019-02-05T12:29:17.772Z,16.77
2019-02-05T12:31:45.417Z,16.30
2019-02-05T12:34:13.144Z,15.77
2019-02-05T12:36:41.003Z,17.07
2019-02-05T12:39:18.416Z,15.37
2019-02-05T12:41:46.130Z,15.77
2019-02-05T12:44:13.987Z,15.17
2019-02-05T12:46:41.803Z,16.00
2019-02-05T12:49:09.437Z,15.77
2019-02-05T12:51:37.204Z,15.10
2019-02-05T12:54:04.846Z,14.60
2019-02-05T12:56:33.191Z,15.63
2019-02-05T12:59:00.972Z,14.10
2019-02-05T13:01:28.619Z,15.43
2019-02-05T13:03:56.378Z,15.20
2019-02-05T13:06:43.647Z,15.50
2019-02-05T13:09:11.965Z,17.33
2019-02-05T13:11:39.898Z,18.27
2019-02-05T13:14:07.640Z,17.43
2019-02-05T13:16:35.393Z,16.30
2019-02-05T13:19:03.372Z,17.70
2019-02-05T13:21:31.041Z,18.43
2019-02-05T13:23:58.625Z,17.13
2019-02-05T13:26:27.379Z,17.20
2019-02-05T13:28:55.365Z,19.90
2019-02-05T13:31:23.252Z,18.57
2019-02-05T13:33:50.902Z,17.70
2019-02-05T13:36:18.460Z,16.77
2019-02-05T13:38:46.356Z,16.27
2019-02-05T13:41:14.438Z,17.60
2019-02-05T13:43:42.117Z,16.23
2019-02-05T13:46:09.925Z,16.03
2019-02-05T13:48:37.501Z,16.73
2019-02-05T13:51:05.199Z,19.07
2019-02-05T13:53:32.816Z,19.40
2019-02-05T13:56:00.409Z,18.70
2019-02-05T13:58:28.503Z,21.43
2019-02-05T14:00:56.118Z,20.87
2019-02-05T14:03:23.837Z,19.17
2019-02-05T14:05:53.108Z,18.20
2019-02-05T14:08:21.848Z,19.50
2019-02-05T14:10:49.575Z,19.63
2019-02-05T14:13:17.503Z,18.30
2019-02-05T14:15:47.923Z,19.37
2019-02-05T14:18:15.575Z,18.20
2019-02-05T14:20:43.195Z,19.63
2019-02-05T14:23:10.924Z,19.73
2019-02-05T14:25:38.464Z,18.93
2019-02-05T14:28:06.244Z,17.60
2019-02-05T14:30:42.374Z,18.30
2019-02-05T14:33:10.023Z,21.50
2019-02-05T14:35:37.843Z,18.63
2019-02-05T14:38:06.790Z,18.90
2019-02-05T14:40:34.425Z,21.67
2019-02-05T14:43:02.033Z,20.87
2019-02-05T14:45:29.737Z,18.60
2019-02-05T14:47:57.826Z,21.20
2019-02-05T14:50:27.338Z,19.60
2019-02-05T14:52:56.204Z,20.17
2019-02-05T14:55:23.886Z,19.30
2019-02-05T14:57:51.516Z,19.77
2019-02-05T15:00:31.151Z,19.77
2019-02-05T15:03:01.819Z,19.57
2019-02-05T15:05:28.404Z,18.47
2019-02-05T15:07:56.211Z,19.60
2019-02-05T15:10:23.965Z,19.10
2019-02-05T15:12:52.890Z,19.63
2019-02-05T15:15:23.502Z,19.50
2019-02-05T15:17:51.540Z,18.70
2019-02-05T15:20:24.706Z,18.40
2019-02-05T15:22:52.340Z,18.53
2019-02-05T15:25:20.079Z,18.87
2019-02-05T15:27:49.001Z,18.53
2019-02-05T15:30:20.067Z,20.27
2019-02-05T15:32:58.630Z,18.90
2019-02-05T15:35:26.282Z,17.13
2019-02-05T15:37:54.049Z,19.00
2019-02-05T15:40:21.888Z,18.33
2019-02-05T15:42:49.595Z,19.00
2019-02-05T15:45:17.712Z,19.10
2019-02-05T15:47:45.285Z,20.07
2019-02-05T15:50:13.216Z,19.00
2019-02-05T15:52:41.051Z,19.70
2019-02-05T15:55:09.003Z,20.40
2019-02-05T15:57:36.762Z,19.00
2019-02-05T16:00:06.225Z,19.97
2019-02-05T16:02:34.519Z,19.67
2019-02-05T16:05:02.174Z,20.17
2019-02-05T16:07:30.903Z,22.20
2019-02-05T16:09:58.675Z,22.57
2019-02-05T16:12:26.585Z,20.80
2019-02-05T16:14:54.393Z,19.43
2019-02-05T16:17:22.670Z,19.33
2019-02-05T16:19:50.682Z,19.50
2019-02-05T16:22:18.399Z,26.40
2019-02-05T16:24:46.006Z,19.37
2019-02-05T16:27:13.708Z,18.60
2019-02-05T16:29:41.330Z,18.77
2019-02-05T16:32:17.271Z,18.57
2019-02-05T16:34:38.401Z,18.93
2019-02-05T16:37:09.325Z,19.17
2019-02-05T16:39:37.171Z,19.90
2019-02-05T16:42:05.038Z,19.77
2019-02-05T16:44:32.633Z,18.80
2019-02-05T16:47:00.172Z,20.27
2019-02-05T16:49:27.828Z,18.17
2019-02-05T16:51:55.448Z,20.00
2019-02-05T16:54:23.589Z,20.13
2019-02-05T16:56:51.532Z,18.37
2019-02-05T16:59:19.121Z,19.40
2019-02-05T17:01:47.367Z,18.67
2019-02-05T17:04:15.226Z,17.50
2019-02-05T17:06:42.910Z,18.90
2019-02-05T17:09:18.094Z,19.37
2019-02-05T17:11:45.695Z,20.50
2019-02-05T17:14:13.219Z,19.03
2019-02-05T17:16:40.962Z,20.73
2019-02-05T17:19:08.663Z,20.13
2019-02-05T17:21:36.407Z,19.70
2019-02-05T17:24:04.151Z,19.93
2019-02-05T17:26:32.240Z,20.43
2019-02-05T17:28:59.923Z,21.50
2019-02-05T17:31:27.617Z,18.10
2019-02-05T17:33:55.441Z,19.47
2019-02-05T17:36:23.227Z,19.70
2019-02-05T17:38:50.943Z,19.90
2019-02-05T17:41:18.619Z,24.03
2019-02-05T17:43:46.684Z,20.33
2019-02-05T17:46:14.462Z,19.07
2019-02-05T17:48:42.189Z,20.60
2019-02-05T17:51:10.310Z,19.07
2019-02-05T17:53:38.261Z,24.85
2019-02-05T17:56:06.257Z,22.67
2019-02-05T17:58:34.247Z,21.70
2019-02-05T18:01:07.822Z,21.63
2019-02-05T18:03:35.728Z,21.30
2019-02-05T18:06:04.776Z,19.60
2019-02-05T18:08:32.861Z,21.20
2019-02-05T18:11:00.601Z,20.10
2019-02-05T18:13:28.143Z,20.03
2019-02-05T18:15:57.758Z,22.60
2019-02-05T18:18:25.556Z,21.83
2019-02-05T18:20:53.198Z,21.47
2019-02-05T18:23:20.994Z,20.50
2019-02-05T18:25:48.757Z,23.47
2019-02-05T18:28:16.319Z,22.20
2019-02-05T18:30:44.012Z,21.30
2019-02-05T18:33:12.329Z,23.07
2019-02-05T18:35:40.393Z,21.30
2019-02-05T18:38:10.638Z,20.60
2019-02-05T18:40:38.512Z,21.50
2019-02-05T18:43:06.253Z,21.07
2019-02-05T18:45:33.920Z,21.63
2019-02-05T18:48:01.577Z,21.60
2019-02-05T18:50:30.301Z,22.40
2019-02-05T18:52:58.617Z,23.10
2019-02-05T18:55:27.090Z,22.13
2019-02-05T18:57:54.756Z,21.97
2019-02-05T19:00:25.135Z,23.10
2019-02-05T19:02:52.906Z,21.53
2019-02-05T19:05:21.040Z,22.93
2019-02-05T19:07:48.793Z,22.67
2019-02-05T19:10:19.349Z,23.00
2019-02-05T19:12:47.095Z,24.40
2019-02-05T19:15:17.263Z,25.13
2019-02-05T19:17:45.141Z,23.43
2019-02-05T19:20:13.893Z,23.27
2019-02-05T19:22:41.929Z,26.40
2019-02-05T19:25:28.138Z,25.63
2019-02-05T19:27:58.408Z,25.00
2019-02-05T19:30:27.828Z,25.80
2019-02-05T19:32:56.470Z,27.67
2019-02-05T19:35:24.404Z,27.40
2019-02-05T19:37:52.091Z,31.42
2019-02-05T19:40:19.910Z,26.63
2019-02-05T19:42:47.625Z,25.53
2019-02-05T19:45:27.222Z,26.30
2019-02-05T19:47:55.463Z,26.13
2019-02-05T19:50:23.104Z,23.23
2019-02-05T19:52:50.632Z,24.30
2019-02-05T19:55:18.251Z,25.80
2019-02-05T19:57:46.282Z,25.37
2019-02-05T20:00:14.038Z,23.63
2019-02-05T20:02:41.716Z,26.23
2019-02-05T20:05:09.688Z,24.87
2019-02-05T20:07:39.903Z,25.00
2019-02-05T20:10:08.437Z,25.27
2019-02-05T20:12:35.933Z,23.93
2019-02-05T20:15:05.633Z,24.07
2019-02-05T20:17:33.207Z,25.50
2019-02-05T20:20:00.575Z,24.83
2019-02-05T20:22:28.442Z,23.67
2019-02-05T20:24:57.969Z,24.57
2019-02-05T20:27:25.582Z,25.97
2019-02-05T20:29:53.126Z,26.43
2019-02-05T20:32:20.732Z,25.53
2019-02-05T20:34:48.588Z,24.30
2019-02-05T20:37:16.161Z,24.60
2019-02-05T20:39:43.725Z,25.30
2019-02-05T20:42:11.363Z,24.90
2019-02-05T20:44:42.085Z,23.03
2019-02-05T20:47:12.146Z,23.93
2019-02-05T20:49:44.240Z,23.53
2019-02-05T20:52:12.176Z,24.47
2019-02-05T20:54:39.702Z,24.70
2019-02-05T20:57:08.743Z,24.13
2019-02-05T20:59:56.685Z,26.77
2019-02-05T21:02:26.660Z,24.30
2019-02-05T21:04:54.822Z,25.50
2019-02-05T21:07:25.100Z,23.47
2019-02-05T21:09:52.655Z,25.67
2019-02-05T21:12:24.131Z,25.63
2019-02-05T21:14:52.558Z,24.90
2019-02-05T21:17:20.405Z,24.17
2019-02-05T21:19:48.456Z,25.00
2019-02-05T21:22:17.019Z,25.90
2019-02-05T21:24:45.988Z,26.03
2019-02-05T21:27:16.882Z,25.33
2019-02-05T21:29:46.719Z,26.30
2019-02-05T21:32:14.962Z,24.13
2019-02-05T21:34:45.806Z,24.80
2019-02-05T21:37:14.428Z,23.43
2019-02-05T21:39:42.016Z,24.57
2019-02-05T21:42:12.369Z,24.43
2019-02-05T21:44:40.100Z,27.07
2019-02-05T21:47:08.812Z,23.60
2019-02-05T21:49:36.511Z,24.97
2019-02-05T21:52:04.293Z,22.83
2019-02-05T21:54:32.521Z,25.07
2019-02-05T21:57:00.099Z,22.87
2019-02-05T21:59:28.606Z,25.23
2019-02-05T22:01:58.019Z,25.70
2019-02-05T22:04:37.258Z,25.70
2019-02-05T22:07:03.917Z,24.10
2019-02-05T22:10:00.989Z,25.00
2019-02-05T22:12:30.854Z,24.07
2019-02-05T22:15:01.254Z,26.40
2019-02-05T22:17:28.932Z,24.77
2019-02-05T22:19:56.588Z,23.90
2019-02-05T22:22:24.098Z,24.50
2019-02-05T22:24:51.549Z,24.30
2019-02-05T22:27:19.302Z,23.40
2019-02-05T22:29:46.855Z,24.53
2019-02-05T22:32:14.748Z,25.57
2019-02-05T22:34:42.303Z,23.83
2019-02-05T22:37:09.960Z,24.33
2019-02-05T22:39:37.927Z,24.30
2019-02-05T22:42:05.586Z,23.23
2019-02-05T22:44:33.174Z,24.53
2019-02-05T22:47:00.794Z,21.50
2019-02-05T22:49:28.445Z,24.30
2019-02-05T22:51:56.550Z,23.40
2019-02-05T22:54:24.171Z,24.63
2019-02-05T22:56:51.992Z,21.67
2019-02-05T22:59:19.842Z,23.37
2019-02-05T23:01:58.489Z,21.07
2019-02-05T23:04:56.563Z,22.43
2019-02-05T23:07:26.711Z,22.03
2019-02-05T23:10:07.751Z,23.25
2019-02-05T23:12:57.750Z,23.93
2019-02-05T23:15:28.929Z,27.13
2019-02-05T23:17:56.641Z,22.73
2019-02-05T23:20:24.578Z,20.20
2019-02-05T23:22:52.210Z,21.50
2019-02-05T23:25:19.738Z,23.10
2019-02-05T23:27:47.511Z,23.37
2019-02-05T23:30:23.912Z,22.90
2019-02-05T23:32:51.480Z,23.90
2019-02-05T23:35:19.093Z,25.77
2019-02-05T23:37:47.034Z,24.77
2019-02-05T23:40:14.654Z,27.20
2019-02-05T23:42:44.684Z,28.77
2019-02-05T23:45:12.342Z,32.07
2019-02-05T23:47:39.865Z,32.13
2019-02-05T23:50:09.835Z,31.63
2019-02-05T23:52:37.347Z,32.03
2019-02-05T23:55:06.031Z,35.20
2019-02-05T23:57:33.672Z,35.67
